sensor_id;sensor_type;location;lat;lon;timestamp;temperature;humidity
60293;DHT22;52402;52.670;6.750;2023-10-09T00:01:10;13.30;99.90
60293;DHT22;52402;52.670;6.750;2023-10-09T00:03:42;13.40;99.90
60293;DHT22;52402;52.670;6.750;2023-10-09T00:06:09;13.30;99.90
60293;DHT22;52402;52.670;6.750;2023-10-09T00:08:42;13.40;99.90
60293;DHT22;52402;52.670;6.750;2023-10-09T00:11:13;13.40;99.90
60293;DHT22;52402;52.670;6.750;2023-10-09T00:13:47;13.40;99.90
60293;DHT22;52402;52.670;6.750;2023-10-09T00:16:18;13.40;99.90
60293;DHT22;52402;52.670;6.750;2023-10-09T00:18:59;13.40;99.90
60293;DHT22;52402;52.670;6.750;2023-10-09T00:21:39;13.50;99.90
60293;DHT22;52402;52.670;6.750;2023-10-09T00:24:05;13.40;99.90
60293;DHT22;52402;52.670;6.750;2023-10-09T00:26:44;13.40;99.90
60293;DHT22;52402;52.670;6.750;2023-10-09T00:29:14;13.40;99.90
60293;DHT22;52402;52.670;6.750;2023-10-09T00:31:52;13.50;99.90
60293;DHT22;52402;52.670;6.750;2023-10-09T00:34:29;13.40;99.90
60293;DHT22;52402;52.670;6.750;2023-10-09T00:36:55;13.40;99.90
60293;DHT22;52402;52.670;6.750;2023-10-09T00:39:23;13.40;99.90
60293;DHT22;52402;52.670;6.750;2023-10-09T00:42:03;13.40;99.90
60293;DHT22;52402;52.670;6.750;2023-10-09T00:44:32;13.40;99.90
60293;DHT22;52402;52.670;6.750;2023-10-09T00:47:11;13.40;99.90
60293;DHT22;52402;52.670;6.750;2023-10-09T00:50:03;13.30;99.90
60293;DHT22;52402;52.670;6.750;2023-10-09T00:52:36;13.30;99.90
60293;DHT22;52402;52.670;6.750;2023-10-09T00:55:05;13.30;99.90
60293;DHT22;52402;52.670;6.750;2023-10-09T00:57:43;13.30;99.90
60293;DHT22;52402;52.670;6.750;2023-10-09T01:00:22;13.20;99.90
60293;DHT22;52402;52.670;6.750;2023-10-09T01:03:02;13.30;99.90
60293;DHT22;52402;52.670;6.750;2023-10-09T01:08:28;13.20;99.90
60293;DHT22;52402;52.670;6.750;2023-10-09T01:11:13;13.30;99.90
60293;DHT22;52402;52.670;6.750;2023-10-09T01:13:47;13.30;99.90
60293;DHT22;52402;52.670;6.750;2023-10-09T01:16:14;13.30;99.90
60293;DHT22;52402;52.670;6.750;2023-10-09T01:19:03;13.30;99.90
60293;DHT22;52402;52.670;6.750;2023-10-09T01:21:39;13.30;99.90
60293;DHT22;52402;52.670;6.750;2023-10-09T01:24:07;13.30;99.90
60293;DHT22;52402;52.670;6.750;2023-10-09T01:26:37;13.30;99.90
60293;DHT22;52402;52.670;6.750;2023-10-09T01:29:13;13.30;99.90
60293;DHT22;52402;52.670;6.750;2023-10-09T01:31:53;13.30;99.90
60293;DHT22;52402;52.670;6.750;2023-10-09T01:34:26;13.30;99.90
60293;DHT22;52402;52.670;6.750;2023-10-09T01:37:05;13.30;99.90
60293;DHT22;52402;52.670;6.750;2023-10-09T01:39:40;13.20;99.90
60293;DHT22;52402;52.670;6.750;2023-10-09T01:42:08;13.30;99.90
60293;DHT22;52402;52.670;6.750;2023-10-09T01:44:34;13.20;99.90
60293;DHT22;52402;52.670;6.750;2023-10-09T01:47:01;13.20;99.90
60293;DHT22;52402;52.670;6.750;2023-10-09T01:49:35;13.20;99.90
60293;DHT22;52402;52.670;6.750;2023-10-09T01:52:07;13.20;99.90
60293;DHT22;52402;52.670;6.750;2023-10-09T01:54:38;13.20;99.90
60293;DHT22;52402;52.670;6.750;2023-10-09T01:57:08;13.20;99.90
60293;DHT22;52402;52.670;6.750;2023-10-09T01:59:48;13.20;99.90
60293;DHT22;52402;52.670;6.750;2023-10-09T02:02:28;13.20;99.90
60293;DHT22;52402;52.670;6.750;2023-10-09T02:05:04;13.20;99.90
60293;DHT22;52402;52.670;6.750;2023-10-09T02:07:43;13.20;99.90
60293;DHT22;52402;52.670;6.750;2023-10-09T02:10:24;13.20;99.90
60293;DHT22;52402;52.670;6.750;2023-10-09T02:12:52;13.20;99.90
60293;DHT22;52402;52.670;6.750;2023-10-09T02:15:23;13.20;99.90
60293;DHT22;52402;52.670;6.750;2023-10-09T02:18:15;13.20;99.90
60293;DHT22;52402;52.670;6.750;2023-10-09T02:21:11;13.20;99.90
60293;DHT22;52402;52.670;6.750;2023-10-09T02:23:36;13.20;99.90
60293;DHT22;52402;52.670;6.750;2023-10-09T02:26:16;13.20;99.90
60293;DHT22;52402;52.670;6.750;2023-10-09T02:28:55;13.10;99.90
60293;DHT22;52402;52.670;6.750;2023-10-09T02:31:25;13.20;99.90
60293;DHT22;52402;52.670;6.750;2023-10-09T02:33:56;13.20;99.90
60293;DHT22;52402;52.670;6.750;2023-10-09T02:36:22;13.20;99.90
60293;DHT22;52402;52.670;6.750;2023-10-09T02:38:58;13.20;99.90
60293;DHT22;52402;52.670;6.750;2023-10-09T02:41:24;13.20;99.90
60293;DHT22;52402;52.670;6.750;2023-10-09T02:43:57;13.20;99.90
60293;DHT22;52402;52.670;6.750;2023-10-09T02:46:37;13.20;99.90
60293;DHT22;52402;52.670;6.750;2023-10-09T02:49:10;13.10;99.90
60293;DHT22;52402;52.670;6.750;2023-10-09T02:51:41;13.20;99.90
60293;DHT22;52402;52.670;6.750;2023-10-09T02:54:15;13.20;99.90
60293;DHT22;52402;52.670;6.750;2023-10-09T02:56:48;13.20;99.90
60293;DHT22;52402;52.670;6.750;2023-10-09T02:59:37;13.20;99.90
60293;DHT22;52402;52.670;6.750;2023-10-09T03:02:08;13.20;99.90
60293;DHT22;52402;52.670;6.750;2023-10-09T03:04:51;13.20;99.90
60293;DHT22;52402;52.670;6.750;2023-10-09T03:07:23;13.20;99.90
60293;DHT22;52402;52.670;6.750;2023-10-09T03:09:49;13.20;99.90
60293;DHT22;52402;52.670;6.750;2023-10-09T03:12:15;13.20;99.90
60293;DHT22;52402;52.670;6.750;2023-10-09T03:14:44;13.20;99.90
60293;DHT22;52402;52.670;6.750;2023-10-09T03:17:10;13.20;99.90
60293;DHT22;52402;52.670;6.750;2023-10-09T03:19:37;13.20;99.90
60293;DHT22;52402;52.670;6.750;2023-10-09T03:22:04;13.30;99.90
60293;DHT22;52402;52.670;6.750;2023-10-09T03:24:31;13.20;99.90
60293;DHT22;52402;52.670;6.750;2023-10-09T03:26:57;13.20;99.90
60293;DHT22;52402;52.670;6.750;2023-10-09T03:29:24;13.30;99.90
60293;DHT22;52402;52.670;6.750;2023-10-09T03:31:50;13.30;99.90
60293;DHT22;52402;52.670;6.750;2023-10-09T03:34:17;13.30;99.90
60293;DHT22;52402;52.670;6.750;2023-10-09T03:36:45;13.30;99.90
60293;DHT22;52402;52.670;6.750;2023-10-09T03:39:10;13.30;99.90
60293;DHT22;52402;52.670;6.750;2023-10-09T03:41:56;13.40;99.90
60293;DHT22;52402;52.670;6.750;2023-10-09T03:44:24;13.40;99.90
60293;DHT22;52402;52.670;6.750;2023-10-09T03:46:54;13.40;99.90
60293;DHT22;52402;52.670;6.750;2023-10-09T03:49:20;13.40;99.90
60293;DHT22;52402;52.670;6.750;2023-10-09T03:51:49;13.40;99.90
60293;DHT22;52402;52.670;6.750;2023-10-09T03:54:16;13.40;99.90
60293;DHT22;52402;52.670;6.750;2023-10-09T03:56:49;13.50;99.90
60293;DHT22;52402;52.670;6.750;2023-10-09T03:59:18;13.50;99.90
60293;DHT22;52402;52.670;6.750;2023-10-09T04:01:47;13.50;99.90
60293;DHT22;52402;52.670;6.750;2023-10-09T04:04:19;13.50;99.90
60293;DHT22;52402;52.670;6.750;2023-10-09T04:06:48;13.60;99.90
60293;DHT22;52402;52.670;6.750;2023-10-09T04:09:17;13.60;99.90
60293;DHT22;52402;52.670;6.750;2023-10-09T04:11:47;13.70;99.90
60293;DHT22;52402;52.670;6.750;2023-10-09T04:14:18;13.70;99.90
60293;DHT22;52402;52.670;6.750;2023-10-09T04:16:58;13.70;99.90
60293;DHT22;52402;52.670;6.750;2023-10-09T04:19:35;13.70;99.90
60293;DHT22;52402;52.670;6.750;2023-10-09T04:22:16;13.70;99.90
60293;DHT22;52402;52.670;6.750;2023-10-09T04:24:52;13.80;99.90
60293;DHT22;52402;52.670;6.750;2023-10-09T04:27:18;13.80;99.90
60293;DHT22;52402;52.670;6.750;2023-10-09T04:29:52;13.80;99.90
60293;DHT22;52402;52.670;6.750;2023-10-09T04:32:22;13.80;99.90
60293;DHT22;52402;52.670;6.750;2023-10-09T04:34:51;13.90;99.90
60293;DHT22;52402;52.670;6.750;2023-10-09T04:37:35;13.90;99.90
60293;DHT22;52402;52.670;6.750;2023-10-09T04:40:04;14.00;99.90
60293;DHT22;52402;52.670;6.750;2023-10-09T04:42:40;13.90;99.90
60293;DHT22;52402;52.670;6.750;2023-10-09T04:45:26;14.00;99.90
60293;DHT22;52402;52.670;6.750;2023-10-09T04:48:11;14.00;99.90
60293;DHT22;52402;52.670;6.750;2023-10-09T04:50:38;14.10;99.90
60293;DHT22;52402;52.670;6.750;2023-10-09T04:53:32;14.00;99.90
60293;DHT22;52402;52.670;6.750;2023-10-09T04:56:09;14.10;99.90
60293;DHT22;52402;52.670;6.750;2023-10-09T04:58:44;14.20;99.90
60293;DHT22;52402;52.670;6.750;2023-10-09T05:01:12;14.20;99.90
60293;DHT22;52402;52.670;6.750;2023-10-09T05:04:02;14.20;99.90
60293;DHT22;52402;52.670;6.750;2023-10-09T05:06:31;14.20;99.90
60293;DHT22;52402;52.670;6.750;2023-10-09T05:09:23;14.30;99.90
60293;DHT22;52402;52.670;6.750;2023-10-09T05:11:52;14.30;99.90
60293;DHT22;52402;52.670;6.750;2023-10-09T05:14:19;14.30;99.90
60293;DHT22;52402;52.670;6.750;2023-10-09T05:16:53;14.40;99.90
60293;DHT22;52402;52.670;6.750;2023-10-09T05:19:32;14.40;99.90
60293;DHT22;52402;52.670;6.750;2023-10-09T05:22:29;14.40;99.90
60293;DHT22;52402;52.670;6.750;2023-10-09T05:24:58;14.40;99.90
60293;DHT22;52402;52.670;6.750;2023-10-09T05:27:27;14.40;99.90
60293;DHT22;52402;52.670;6.750;2023-10-09T05:30:15;14.40;99.90
60293;DHT22;52402;52.670;6.750;2023-10-09T05:32:56;14.40;99.90
60293;DHT22;52402;52.670;6.750;2023-10-09T05:35:48;14.50;99.90
60293;DHT22;52402;52.670;6.750;2023-10-09T05:38:41;14.50;99.90
60293;DHT22;52402;52.670;6.750;2023-10-09T05:41:15;14.50;99.90
60293;DHT22;52402;52.670;6.750;2023-10-09T05:44:02;14.50;99.90
60293;DHT22;52402;52.670;6.750;2023-10-09T05:46:50;14.50;99.90
60293;DHT22;52402;52.670;6.750;2023-10-09T05:49:36;14.50;99.90
60293;DHT22;52402;52.670;6.750;2023-10-09T05:52:26;14.50;99.90
60293;DHT22;52402;52.670;6.750;2023-10-09T05:55:25;14.60;99.90
60293;DHT22;52402;52.670;6.750;2023-10-09T05:58:19;14.60;99.90
60293;DHT22;52402;52.670;6.750;2023-10-09T06:01:08;14.60;99.90
60293;DHT22;52402;52.670;6.750;2023-10-09T06:03:54;14.60;99.90
60293;DHT22;52402;52.670;6.750;2023-10-09T06:06:37;14.60;99.90
60293;DHT22;52402;52.670;6.750;2023-10-09T06:09:31;14.70;99.90
60293;DHT22;52402;52.670;6.750;2023-10-09T06:12:22;14.70;99.90
60293;DHT22;52402;52.670;6.750;2023-10-09T06:15:00;14.80;99.90
60293;DHT22;52402;52.670;6.750;2023-10-09T06:17:48;14.80;99.90
60293;DHT22;52402;52.670;6.750;2023-10-09T06:20:17;14.80;99.90
60293;DHT22;52402;52.670;6.750;2023-10-09T06:23:03;14.80;99.90
60293;DHT22;52402;52.670;6.750;2023-10-09T06:25:46;14.80;99.90
60293;DHT22;52402;52.670;6.750;2023-10-09T06:28:31;14.90;99.90
60293;DHT22;52402;52.670;6.750;2023-10-09T06:31:01;14.90;99.90
60293;DHT22;52402;52.670;6.750;2023-10-09T06:33:55;14.90;99.90
60293;DHT22;52402;52.670;6.750;2023-10-09T06:36:40;15.00;99.90
60293;DHT22;52402;52.670;6.750;2023-10-09T06:39:19;15.00;99.90
60293;DHT22;52402;52.670;6.750;2023-10-09T06:42:07;15.10;99.90
60293;DHT22;52402;52.670;6.750;2023-10-09T06:44:55;15.10;99.90
60293;DHT22;52402;52.670;6.750;2023-10-09T06:47:22;15.20;99.90
60293;DHT22;52402;52.670;6.750;2023-10-09T06:49:52;15.20;99.90
60293;DHT22;52402;52.670;6.750;2023-10-09T06:52:40;15.30;99.90
60293;DHT22;52402;52.670;6.750;2023-10-09T06:55:51;15.30;99.90
60293;DHT22;52402;52.670;6.750;2023-10-09T06:58:19;15.30;99.90
60293;DHT22;52402;52.670;6.750;2023-10-09T07:00:54;15.40;99.90
60293;DHT22;52402;52.670;6.750;2023-10-09T07:03:39;15.40;99.90
60293;DHT22;52402;52.670;6.750;2023-10-09T07:06:21;15.50;99.90
60293;DHT22;52402;52.670;6.750;2023-10-09T07:08:53;15.50;99.90
60293;DHT22;52402;52.670;6.750;2023-10-09T07:11:46;15.50;99.90
60293;DHT22;52402;52.670;6.750;2023-10-09T07:14:23;15.60;99.90
60293;DHT22;52402;52.670;6.750;2023-10-09T07:17:01;15.60;99.90
60293;DHT22;52402;52.670;6.750;2023-10-09T07:19:32;15.60;99.90
60293;DHT22;52402;52.670;6.750;2023-10-09T07:22:16;15.70;99.90
60293;DHT22;52402;52.670;6.750;2023-10-09T07:24:48;15.70;99.90
60293;DHT22;52402;52.670;6.750;2023-10-09T07:27:30;15.70;99.90
60293;DHT22;52402;52.670;6.750;2023-10-09T07:30:18;15.70;99.90
60293;DHT22;52402;52.670;6.750;2023-10-09T07:33:07;15.70;99.90
60293;DHT22;52402;52.670;6.750;2023-10-09T07:35:47;15.80;99.90
60293;DHT22;52402;52.670;6.750;2023-10-09T07:38:24;15.80;99.90
60293;DHT22;52402;52.670;6.750;2023-10-09T07:41:03;15.80;99.90
60293;DHT22;52402;52.670;6.750;2023-10-09T07:43:41;15.80;99.90
60293;DHT22;52402;52.670;6.750;2023-10-09T07:46:18;15.80;99.90
60293;DHT22;52402;52.670;6.750;2023-10-09T07:49:04;15.80;99.90
60293;DHT22;52402;52.670;6.750;2023-10-09T07:51:42;15.80;99.90
60293;DHT22;52402;52.670;6.750;2023-10-09T07:54:10;15.80;99.90
60293;DHT22;52402;52.670;6.750;2023-10-09T07:56:41;15.90;99.90
60293;DHT22;52402;52.670;6.750;2023-10-09T07:59:13;15.90;99.90
60293;DHT22;52402;52.670;6.750;2023-10-09T08:01:42;16.00;99.90
60293;DHT22;52402;52.670;6.750;2023-10-09T08:04:29;16.00;99.90
60293;DHT22;52402;52.670;6.750;2023-10-09T08:07:10;16.10;99.90
60293;DHT22;52402;52.670;6.750;2023-10-09T08:10:20;16.10;99.90
60293;DHT22;52402;52.670;6.750;2023-10-09T08:12:50;16.10;99.90
60293;DHT22;52402;52.670;6.750;2023-10-09T08:15:57;16.20;99.90
60293;DHT22;52402;52.670;6.750;2023-10-09T08:18:26;16.20;99.90
60293;DHT22;52402;52.670;6.750;2023-10-09T08:20:54;16.30;99.90
60293;DHT22;52402;52.670;6.750;2023-10-09T08:23:24;16.30;99.90
60293;DHT22;52402;52.670;6.750;2023-10-09T08:26:20;16.30;99.90
60293;DHT22;52402;52.670;6.750;2023-10-09T08:28:58;16.40;99.90
60293;DHT22;52402;52.670;6.750;2023-10-09T08:31:44;16.40;99.90
60293;DHT22;52402;52.670;6.750;2023-10-09T08:34:22;16.50;99.90
60293;DHT22;52402;52.670;6.750;2023-10-09T08:36:54;16.50;99.90
60293;DHT22;52402;52.670;6.750;2023-10-09T08:39:35;16.60;99.90
60293;DHT22;52402;52.670;6.750;2023-10-09T08:42:10;16.60;99.90
60293;DHT22;52402;52.670;6.750;2023-10-09T08:44:45;16.70;99.90
60293;DHT22;52402;52.670;6.750;2023-10-09T08:47:21;16.70;99.90
60293;DHT22;52402;52.670;6.750;2023-10-09T08:49:47;16.70;99.90
60293;DHT22;52402;52.670;6.750;2023-10-09T08:52:17;16.70;99.90
60293;DHT22;52402;52.670;6.750;2023-10-09T08:54:44;16.80;99.90
60293;DHT22;52402;52.670;6.750;2023-10-09T08:57:15;16.80;99.90
60293;DHT22;52402;52.670;6.750;2023-10-09T08:59:47;16.90;99.90
60293;DHT22;52402;52.670;6.750;2023-10-09T09:02:13;16.90;99.90
60293;DHT22;52402;52.670;6.750;2023-10-09T09:04:41;16.90;99.90
60293;DHT22;52402;52.670;6.750;2023-10-09T09:07:28;16.90;99.90
60293;DHT22;52402;52.670;6.750;2023-10-09T09:09:59;16.90;99.90
60293;DHT22;52402;52.670;6.750;2023-10-09T09:12:46;17.00;99.90
60293;DHT22;52402;52.670;6.750;2023-10-09T09:15:19;17.00;99.90
60293;DHT22;52402;52.670;6.750;2023-10-09T09:17:49;17.00;99.90
60293;DHT22;52402;52.670;6.750;2023-10-09T09:20:21;17.10;99.90
60293;DHT22;52402;52.670;6.750;2023-10-09T09:22:55;17.00;99.90
60293;DHT22;52402;52.670;6.750;2023-10-09T09:25:47;17.10;99.90
60293;DHT22;52402;52.670;6.750;2023-10-09T09:28:14;17.00;99.90
60293;DHT22;52402;52.670;6.750;2023-10-09T09:30:52;17.00;99.90
60293;DHT22;52402;52.670;6.750;2023-10-09T09:33:39;17.00;99.90
60293;DHT22;52402;52.670;6.750;2023-10-09T09:36:09;17.00;99.90
60293;DHT22;52402;52.670;6.750;2023-10-09T09:38:38;17.00;99.90
60293;DHT22;52402;52.670;6.750;2023-10-09T09:41:11;16.90;99.90
60293;DHT22;52402;52.670;6.750;2023-10-09T09:43:57;16.90;99.90
60293;DHT22;52402;52.670;6.750;2023-10-09T09:46:39;16.80;99.90
60293;DHT22;52402;52.670;6.750;2023-10-09T09:49:08;16.80;99.90
60293;DHT22;52402;52.670;6.750;2023-10-09T09:51:47;16.90;99.90
60293;DHT22;52402;52.670;6.750;2023-10-09T09:54:16;16.90;99.90
60293;DHT22;52402;52.670;6.750;2023-10-09T09:56:46;16.90;99.90
60293;DHT22;52402;52.670;6.750;2023-10-09T09:59:29;16.90;99.90
60293;DHT22;52402;52.670;6.750;2023-10-09T10:02:04;16.90;99.90
60293;DHT22;52402;52.670;6.750;2023-10-09T10:04:39;16.90;99.90
60293;DHT22;52402;52.670;6.750;2023-10-09T10:07:09;16.90;99.90
60293;DHT22;52402;52.670;6.750;2023-10-09T10:09:40;16.90;99.90
60293;DHT22;52402;52.670;6.750;2023-10-09T10:12:08;16.80;99.90
60293;DHT22;52402;52.670;6.750;2023-10-09T10:14:56;16.80;99.90
60293;DHT22;52402;52.670;6.750;2023-10-09T10:17:27;16.90;99.90
60293;DHT22;52402;52.670;6.750;2023-10-09T10:20:01;16.90;99.90
60293;DHT22;52402;52.670;6.750;2023-10-09T10:22:40;16.90;99.90
60293;DHT22;52402;52.670;6.750;2023-10-09T10:28:22;17.10;99.90
60293;DHT22;52402;52.670;6.750;2023-10-09T10:31:09;17.20;99.90
60293;DHT22;52402;52.670;6.750;2023-10-09T10:34:04;17.30;99.90
60293;DHT22;52402;52.670;6.750;2023-10-09T10:36:35;17.50;99.90
60293;DHT22;52402;52.670;6.750;2023-10-09T10:39:06;17.60;99.90
60293;DHT22;52402;52.670;6.750;2023-10-09T10:41:53;17.70;99.90
60293;DHT22;52402;52.670;6.750;2023-10-09T10:44:27;17.80;99.90
60293;DHT22;52402;52.670;6.750;2023-10-09T10:47:12;18.00;99.90
60293;DHT22;52402;52.670;6.750;2023-10-09T10:49:58;18.00;99.90
60293;DHT22;52402;52.670;6.750;2023-10-09T10:52:27;18.10;99.90
60293;DHT22;52402;52.670;6.750;2023-10-09T10:55:13;18.20;99.90
60293;DHT22;52402;52.670;6.750;2023-10-09T10:57:45;18.30;99.90
60293;DHT22;52402;52.670;6.750;2023-10-09T11:00:29;18.20;99.90
60293;DHT22;52402;52.670;6.750;2023-10-09T11:03:21;18.20;99.90
60293;DHT22;52402;52.670;6.750;2023-10-09T11:06:01;18.20;99.90
60293;DHT22;52402;52.670;6.750;2023-10-09T11:08:47;18.30;99.90
60293;DHT22;52402;52.670;6.750;2023-10-09T11:11:20;18.20;99.90
60293;DHT22;52402;52.670;6.750;2023-10-09T11:13:47;18.10;99.90
60293;DHT22;52402;52.670;6.750;2023-10-09T11:16:22;18.10;99.90
60293;DHT22;52402;52.670;6.750;2023-10-09T11:19:12;18.10;99.90
60293;DHT22;52402;52.670;6.750;2023-10-09T11:21:49;18.10;99.90
60293;DHT22;52402;52.670;6.750;2023-10-09T11:24:31;18.20;99.90
60293;DHT22;52402;52.670;6.750;2023-10-09T11:27:04;18.10;99.90
60293;DHT22;52402;52.670;6.750;2023-10-09T11:29:35;18.10;99.90
60293;DHT22;52402;52.670;6.750;2023-10-09T11:32:18;18.10;99.90
60293;DHT22;52402;52.670;6.750;2023-10-09T11:34:47;18.00;99.90
60293;DHT22;52402;52.670;6.750;2023-10-09T11:37:20;18.10;99.90
60293;DHT22;52402;52.670;6.750;2023-10-09T11:39:55;18.20;99.90
60293;DHT22;52402;52.670;6.750;2023-10-09T11:42:22;18.20;99.90
60293;DHT22;52402;52.670;6.750;2023-10-09T11:45:26;18.40;99.90
60293;DHT22;52402;52.670;6.750;2023-10-09T11:47:57;18.40;99.90
60293;DHT22;52402;52.670;6.750;2023-10-09T11:50:47;18.30;99.90
60293;DHT22;52402;52.670;6.750;2023-10-09T11:53:17;18.30;99.90
60293;DHT22;52402;52.670;6.750;2023-10-09T11:55:50;18.30;99.90
60293;DHT22;52402;52.670;6.750;2023-10-09T11:58:18;18.30;99.90
60293;DHT22;52402;52.670;6.750;2023-10-09T12:00:56;18.30;99.90
60293;DHT22;52402;52.670;6.750;2023-10-09T12:03:28;18.30;99.90
60293;DHT22;52402;52.670;6.750;2023-10-09T12:06:01;18.40;99.90
60293;DHT22;52402;52.670;6.750;2023-10-09T12:08:34;18.50;99.90
60293;DHT22;52402;52.670;6.750;2023-10-09T12:11:02;18.60;99.90
60293;DHT22;52402;52.670;6.750;2023-10-09T12:13:34;18.50;99.90
60293;DHT22;52402;52.670;6.750;2023-10-09T12:16:00;18.50;99.90
60293;DHT22;52402;52.670;6.750;2023-10-09T12:18:25;18.50;99.90
60293;DHT22;52402;52.670;6.750;2023-10-09T12:20:52;18.40;99.90
60293;DHT22;52402;52.670;6.750;2023-10-09T12:23:20;18.40;99.90
60293;DHT22;52402;52.670;6.750;2023-10-09T12:25:48;18.30;99.90
60293;DHT22;52402;52.670;6.750;2023-10-09T12:28:15;18.20;99.90
60293;DHT22;52402;52.670;6.750;2023-10-09T12:30:41;18.20;99.90
60293;DHT22;52402;52.670;6.750;2023-10-09T12:33:08;18.20;99.90
60293;DHT22;52402;52.670;6.750;2023-10-09T12:35:38;18.30;99.90
60293;DHT22;52402;52.670;6.750;2023-10-09T12:38:05;18.30;99.90
60293;DHT22;52402;52.670;6.750;2023-10-09T12:40:38;18.30;99.90
60293;DHT22;52402;52.670;6.750;2023-10-09T12:43:17;18.40;99.90
60293;DHT22;52402;52.670;6.750;2023-10-09T12:45:45;18.30;99.90
60293;DHT22;52402;52.670;6.750;2023-10-09T12:48:12;18.30;99.90
60293;DHT22;52402;52.670;6.750;2023-10-09T12:50:40;18.40;99.90
60293;DHT22;52402;52.670;6.750;2023-10-09T12:53:10;18.30;99.90
60293;DHT22;52402;52.670;6.750;2023-10-09T12:55:40;18.30;99.90
60293;DHT22;52402;52.670;6.750;2023-10-09T12:58:07;18.30;99.90
60293;DHT22;52402;52.670;6.750;2023-10-09T13:00:37;18.30;99.90
60293;DHT22;52402;52.670;6.750;2023-10-09T13:03:12;18.30;99.90
60293;DHT22;52402;52.670;6.750;2023-10-09T13:05:52;18.40;99.90
60293;DHT22;52402;52.670;6.750;2023-10-09T13:08:24;18.50;99.90
60293;DHT22;52402;52.670;6.750;2023-10-09T13:10:56;18.60;99.90
60293;DHT22;52402;52.670;6.750;2023-10-09T13:13:29;18.90;99.90
60293;DHT22;52402;52.670;6.750;2023-10-09T13:16:14;19.20;99.90
60293;DHT22;52402;52.670;6.750;2023-10-09T13:18:54;19.50;99.90
60293;DHT22;52402;52.670;6.750;2023-10-09T13:21:22;19.50;99.90
60293;DHT22;52402;52.670;6.750;2023-10-09T13:23:49;19.40;99.90
60293;DHT22;52402;52.670;6.750;2023-10-09T13:26:17;19.30;99.90
60293;DHT22;52402;52.670;6.750;2023-10-09T13:28:52;19.30;99.90
60293;DHT22;52402;52.670;6.750;2023-10-09T13:31:18;19.30;99.90
60293;DHT22;52402;52.670;6.750;2023-10-09T13:33:47;19.40;99.90
60293;DHT22;52402;52.670;6.750;2023-10-09T13:36:14;19.40;99.90
60293;DHT22;52402;52.670;6.750;2023-10-09T13:38:48;19.50;99.90
60293;DHT22;52402;52.670;6.750;2023-10-09T13:41:13;19.50;99.90
60293;DHT22;52402;52.670;6.750;2023-10-09T13:43:43;19.60;99.90
60293;DHT22;52402;52.670;6.750;2023-10-09T13:46:15;19.50;99.90
60293;DHT22;52402;52.670;6.750;2023-10-09T13:48:43;19.40;99.90
60293;DHT22;52402;52.670;6.750;2023-10-09T13:51:11;19.30;99.90
60293;DHT22;52402;52.670;6.750;2023-10-09T13:53:46;19.20;99.90
60293;DHT22;52402;52.670;6.750;2023-10-09T13:56:18;19.10;99.90
60293;DHT22;52402;52.670;6.750;2023-10-09T13:58:51;19.00;99.90
60293;DHT22;52402;52.670;6.750;2023-10-09T14:01:21;18.90;99.90
60293;DHT22;52402;52.670;6.750;2023-10-09T14:03:54;18.90;99.90
60293;DHT22;52402;52.670;6.750;2023-10-09T14:06:20;18.90;99.90
60293;DHT22;52402;52.670;6.750;2023-10-09T14:08:59;18.90;99.90
60293;DHT22;52402;52.670;6.750;2023-10-09T14:11:27;18.80;99.90
60293;DHT22;52402;52.670;6.750;2023-10-09T14:13:53;18.80;99.90
60293;DHT22;52402;52.670;6.750;2023-10-09T14:16:19;18.70;99.90
60293;DHT22;52402;52.670;6.750;2023-10-09T14:18:55;18.70;99.90
60293;DHT22;52402;52.670;6.750;2023-10-09T14:21:28;18.70;99.90
60293;DHT22;52402;52.670;6.750;2023-10-09T14:23:56;18.70;99.90
60293;DHT22;52402;52.670;6.750;2023-10-09T14:26:31;18.70;99.90
60293;DHT22;52402;52.670;6.750;2023-10-09T14:28:59;18.70;99.90
60293;DHT22;52402;52.670;6.750;2023-10-09T14:31:28;18.80;99.90
60293;DHT22;52402;52.670;6.750;2023-10-09T14:34:02;18.80;99.90
60293;DHT22;52402;52.670;6.750;2023-10-09T14:36:30;18.80;99.90
60293;DHT22;52402;52.670;6.750;2023-10-09T14:39:00;18.90;99.90
60293;DHT22;52402;52.670;6.750;2023-10-09T14:41:26;18.90;99.90
60293;DHT22;52402;52.670;6.750;2023-10-09T14:43:53;18.90;99.90
60293;DHT22;52402;52.670;6.750;2023-10-09T14:46:20;18.90;99.90
60293;DHT22;52402;52.670;6.750;2023-10-09T14:48:54;18.80;99.90
60293;DHT22;52402;52.670;6.750;2023-10-09T14:51:21;18.70;99.90
60293;DHT22;52402;52.670;6.750;2023-10-09T14:53:59;18.60;99.90
60293;DHT22;52402;52.670;6.750;2023-10-09T14:56:30;18.60;99.90
60293;DHT22;52402;52.670;6.750;2023-10-09T14:59:00;18.50;99.90
60293;DHT22;52402;52.670;6.750;2023-10-09T15:01:26;18.40;99.90
60293;DHT22;52402;52.670;6.750;2023-10-09T15:03:58;18.30;99.90
60293;DHT22;52402;52.670;6.750;2023-10-09T15:06:29;18.30;99.90
60293;DHT22;52402;52.670;6.750;2023-10-09T15:08:59;18.20;99.90
60293;DHT22;52402;52.670;6.750;2023-10-09T15:11:34;18.20;99.90
60293;DHT22;52402;52.670;6.750;2023-10-09T15:14:00;18.20;99.90
60293;DHT22;52402;52.670;6.750;2023-10-09T15:16:26;18.10;99.90
60293;DHT22;52402;52.670;6.750;2023-10-09T15:18:56;18.10;99.90
60293;DHT22;52402;52.670;6.750;2023-10-09T15:21:28;18.10;99.90
60293;DHT22;52402;52.670;6.750;2023-10-09T15:23:57;18.00;99.90
60293;DHT22;52402;52.670;6.750;2023-10-09T15:26:23;18.00;99.90
60293;DHT22;52402;52.670;6.750;2023-10-09T15:28:51;17.90;99.90
60293;DHT22;52402;52.670;6.750;2023-10-09T15:31:17;17.90;99.90
60293;DHT22;52402;52.670;6.750;2023-10-09T15:33:44;17.90;99.90
60293;DHT22;52402;52.670;6.750;2023-10-09T15:36:14;17.90;99.90
60293;DHT22;52402;52.670;6.750;2023-10-09T15:38:42;17.90;99.90
60293;DHT22;52402;52.670;6.750;2023-10-09T15:41:08;17.90;99.90
60293;DHT22;52402;52.670;6.750;2023-10-09T15:43:35;17.90;99.90
60293;DHT22;52402;52.670;6.750;2023-10-09T15:46:01;17.90;99.90
60293;DHT22;52402;52.670;6.750;2023-10-09T15:48:27;17.90;99.90
60293;DHT22;52402;52.670;6.750;2023-10-09T15:50:53;17.90;99.90
60293;DHT22;52402;52.670;6.750;2023-10-09T15:53:22;17.90;99.90
60293;DHT22;52402;52.670;6.750;2023-10-09T15:55:49;17.90;99.90
60293;DHT22;52402;52.670;6.750;2023-10-09T15:58:24;17.90;99.90
60293;DHT22;52402;52.670;6.750;2023-10-09T16:00:50;17.90;99.90
60293;DHT22;52402;52.670;6.750;2023-10-09T16:03:16;17.90;99.90
60293;DHT22;52402;52.670;6.750;2023-10-09T16:05:41;17.90;99.90
60293;DHT22;52402;52.670;6.750;2023-10-09T16:08:07;17.90;99.90
60293;DHT22;52402;52.670;6.750;2023-10-09T16:10:33;17.80;99.90
60293;DHT22;52402;52.670;6.750;2023-10-09T16:13:00;17.80;99.90
60293;DHT22;52402;52.670;6.750;2023-10-09T16:15:29;17.80;99.90
60293;DHT22;52402;52.670;6.750;2023-10-09T16:17:55;17.70;99.90
60293;DHT22;52402;52.670;6.750;2023-10-09T16:20:27;17.70;99.90
60293;DHT22;52402;52.670;6.750;2023-10-09T16:22:54;17.70;99.90